Time;durP1;ratioP1;P1;durP2;ratioP2;P2;SDS_P1;SDS_P2;PMS_P1;PMS_P2;Temp;Humidity;BMP_temperature;BMP_pressure;BME280_temperature;BME280_humidity;BME280_pressure;Samples;Min_cycle;Max_cycle;Signal;HPM_P1;HPM_P2
2022/08/17 00:02:05;;;;;;;6.20;3.40;;;21.00;56.50;;;20.29;60.55;95498.03;5010716;28;20536;-65
2022/08/17 00:04:30;;;;;;;6.13;3.20;;;21.00;56.80;;;20.28;60.57;95502.59;4986743;28;20497;-65
2022/08/17 00:06:56;;;;;;;4.82;3.20;;;21.00;56.60;;;20.26;61.07;95501.25;4971750;28;20046;-65
2022/08/17 00:09:22;;;;;;;4.50;3.25;;;21.00;56.80;;;20.23;59.74;95501.78;4975323;28;20079;-65
2022/08/17 00:11:48;;;;;;;5.65;3.05;;;20.90;56.80;;;20.21;60.23;95495.91;5004627;28;20061;-65
2022/08/17 00:14:16;;;;;;;6.35;3.55;;;20.90;57.00;;;20.16;60.88;95491.34;5022086;28;20045;-65
2022/08/17 00:16:49;;;;;;;5.53;3.60;;;20.90;57.20;;;20.15;61.92;95489.75;5007542;28;20041;-64
2022/08/17 00:19:21;;;;;;;6.45;3.47;;;20.80;57.20;;;20.11;62.03;95489.44;5022386;28;20488;-64
2022/08/17 00:21:49;;;;;;;5.60;3.22;;;20.80;57.40;;;20.07;60.99;95487.56;4983801;28;20036;-65
2022/08/17 00:24:15;;;;;;;4.63;3.53;;;20.80;57.60;;;20.04;61.96;95486.25;5007390;28;20066;-64
2022/08/17 00:26:41;;;;;;;5.68;3.28;;;20.70;57.80;;;20.03;61.57;95491.84;5019760;28;20026;-64
2022/08/17 00:29:07;;;;;;;6.90;3.75;;;20.70;58.10;;;20.00;61.95;95481.69;4989301;28;20040;-64
2022/08/17 00:31:34;;;;;;;5.40;3.50;;;20.70;57.90;;;19.97;61.58;95483.03;5006671;28;20065;-65
2022/08/17 00:34:00;;;;;;;6.82;3.70;;;20.70;57.70;;;19.92;62.03;95480.34;4998688;28;20033;-67
2022/08/17 00:36:26;;;;;;;8.68;4.07;;;20.60;57.30;;;19.84;60.98;95472.84;5007551;28;20034;-64
2022/08/17 00:38:52;;;;;;;5.47;3.83;;;20.50;57.40;;;19.80;62.07;95474.44;5021066;28;20117;-65
2022/08/17 00:41:22;;;;;;;6.80;3.75;;;20.60;57.20;;;19.77;61.30;95482.97;5021892;28;20157;-64
2022/08/17 00:43:57;;;;;;;3.97;3.17;;;20.50;57.30;;;19.74;62.29;95472.81;4987282;28;20375;-64
2022/08/17 00:46:37;;;;;;;5.07;3.58;;;20.50;57.50;;;19.66;62.37;95470.63;5002781;28;20038;-65
2022/08/17 00:49:03;;;;;;;7.20;3.67;;;20.30;58.00;;;19.61;62.07;95467.94;5023873;28;20497;-65
2022/08/17 00:51:42;;;;;;;8.48;3.50;;;20.30;58.30;;;19.57;62.18;95468.47;5025875;28;20045;-64
2022/08/17 00:54:20;;;;;;;8.07;3.60;;;20.30;58.60;;;19.54;63.73;95463.66;5024268;28;20042;-64
2022/08/17 00:56:59;;;;;;;8.35;3.75;;;20.20;58.70;;;19.52;63.08;95465.75;5022420;28;20460;-64
2022/08/17 00:59:29;;;;;;;7.25;4.35;;;20.30;58.50;;;19.50;63.86;95457.22;5006191;28;20033;-66
2022/08/17 01:01:55;;;;;;;7.18;3.95;;;20.20;58.70;;;19.48;62.70;95453.22;5018886;28;20552;-65
2022/08/17 01:04:21;;;;;;;5.30;3.75;;;20.20;59.00;;;19.47;62.96;95460.41;5017762;28;20041;-66
2022/08/17 01:06:51;;;;;;;7.72;3.80;;;20.30;59.00;;;19.47;64.14;95452.41;5024194;28;20065;-65
2022/08/17 01:09:16;;;;;;;6.80;4.30;;;20.20;59.20;;;19.47;63.19;95459.59;5022376;28;20339;-65
2022/08/17 01:11:43;;;;;;;11.55;4.05;;;20.20;59.20;;;19.44;63.61;95455.56;5022898;28;20115;-65
2022/08/17 01:14:09;;;;;;;7.38;3.90;;;20.20;59.40;;;19.41;63.51;95458.75;4984883;28;20045;-66
2022/08/17 01:16:36;;;;;;;6.90;3.70;;;20.10;59.60;;;19.39;64.06;95460.88;5001489;28;20473;-66
2022/08/17 01:19:13;;;;;;;7.68;4.18;;;20.10;59.50;;;19.37;64.23;95457.69;5000721;28;20089;-65
2022/08/17 01:21:40;;;;;;;6.13;4.18;;;20.10;59.80;;;19.32;64.63;95460.31;4966787;28;20034;-65
2022/08/17 01:24:06;;;;;;;7.47;3.92;;;20.10;59.90;;;19.29;64.66;95458.19;5017324;28;20034;-66
2022/08/17 01:26:32;;;;;;;7.75;3.90;;;20.10;60.10;;;19.26;65.05;95464.03;5002840;28;20041;-65
2022/08/17 01:28:59;;;;;;;4.93;3.60;;;20.10;60.20;;;19.23;64.82;95460.00;4987096;28;20037;-67
2022/08/17 01:31:29;;;;;;;8.38;4.05;;;20.10;60.20;;;19.23;65.51;95457.31;5037761;28;20117;-66
2022/08/17 01:33:59;;;;;;;6.35;4.28;;;20.00;60.30;;;19.21;65.98;95453.31;4969426;28;20025;-65
2022/08/17 01:36:24;;;;;;;15.33;4.30;;;20.00;60.50;;;19.21;65.15;95454.13;4981532;28;20501;-66
2022/08/17 01:38:50;;;;;;;7.20;4.63;;;20.00;60.70;;;19.22;65.63;95457.59;5011929;28;20319;-66
2022/08/17 01:41:16;;;;;;;8.80;4.30;;;20.00;60.50;;;19.18;65.93;95465.31;4993733;28;20116;-66
2022/08/17 01:43:54;;;;;;;5.40;4.28;;;20.00;60.40;;;19.18;66.21;95464.50;4998382;28;20033;-65
2022/08/17 01:46:27;;;;;;;5.63;3.92;;;20.00;60.40;;;19.16;66.35;95462.09;4973800;28;20477;-66
2022/08/17 01:48:54;;;;;;;9.93;4.65;;;19.90;60.60;;;19.14;65.41;95458.09;5010275;28;20409;-65
2022/08/17 01:51:20;;;;;;;9.32;5.50;;;19.90;60.70;;;19.13;65.34;95456.47;5011152;28;20080;-65
2022/08/17 01:53:56;;;;;;;9.88;4.82;;;19.90;60.90;;;19.11;67.50;95462.06;4999767;28;20033;-65
2022/08/17 01:56:22;;;;;;;8.35;4.70;;;19.80;61.00;;;19.10;65.45;95463.13;5020329;28;20532;-65
2022/08/17 01:58:48;;;;;;;8.05;4.80;;;19.90;61.10;;;19.09;66.14;95466.06;5006775;28;20049;-65
2022/08/17 02:01:16;;;;;;;7.45;4.38;;;19.80;61.20;;;19.08;65.85;95459.13;5022185;28;20513;-66
2022/08/17 02:03:42;;;;;;;7.57;4.45;;;19.80;61.30;;;19.06;66.84;95455.91;5008142;28;20042;-65
2022/08/17 02:06:08;;;;;;;5.07;4.18;;;19.80;61.30;;;19.06;67.01;95450.59;5024867;28;21114;-65
2022/08/17 02:08:34;;;;;;;9.75;4.90;;;19.80;61.30;;;19.05;66.15;95448.97;5008917;28;20033;-66
2022/08/17 02:11:01;;;;;;;6.78;4.65;;;19.90;61.10;;;19.05;66.32;95438.31;5013206;28;20137;-66
2022/08/17 02:13:28;;;;;;;8.48;4.68;;;19.80;60.90;;;19.05;65.85;95454.31;4987471;28;20029;-65
2022/08/17 02:15:56;;;;;;;6.00;4.43;;;19.90;60.90;;;19.05;66.69;95443.66;5021720;28;20497;-66
2022/08/17 02:18:21;;;;;;;6.15;4.75;;;19.90;61.00;;;19.02;66.34;95444.97;5022664;28;20025;-66
2022/08/17 02:20:47;;;;;;;7.90;4.78;;;19.80;60.90;;;19.02;66.57;95446.84;4992020;28;20038;-65
2022/08/17 02:23:13;;;;;;;7.60;4.75;;;19.80;60.90;;;19.02;66.31;95450.31;5022371;28;20040;-65
2022/08/17 02:25:42;;;;;;;10.18;5.35;;;19.80;61.10;;;19.03;66.56;95445.78;5022951;28;20053;-66
2022/08/17 02:28:07;;;;;;;11.77;4.80;;;19.80;61.20;;;19.02;66.29;95452.16;4969781;28;20501;-66
2022/08/17 02:30:33;;;;;;;8.65;4.97;;;19.80;61.20;;;18.94;66.55;95448.91;5022883;28;20037;-65
2022/08/17 02:32:59;;;;;;;9.73;5.18;;;19.60;61.70;;;18.87;67.89;95451.00;5020514;28;20037;-65
2022/08/17 02:35:25;;;;;;;6.47;4.70;;;19.60;61.80;;;18.83;67.25;95449.09;5038319;28;20034;-66
2022/08/17 02:37:51;;;;;;;8.82;4.82;;;19.60;62.00;;;18.79;67.18;95434.69;5005771;28;20110;-65
2022/08/17 02:40:17;;;;;;;6.55;4.72;;;19.60;62.20;;;18.74;67.52;95432.78;5004861;28;20054;-66
2022/08/17 02:42:43;;;;;;;12.32;5.10;;;19.50;62.40;;;18.68;67.58;95428.47;5009149;28;20062;-65
2022/08/17 02:45:12;;;;;;;7.72;5.15;;;19.50;62.60;;;18.67;69.18;95435.66;4995273;28;20056;-66
2022/08/17 02:47:39;;;;;;;8.68;5.22;;;19.50;62.70;;;18.67;68.12;95432.22;4980145;28;20459;-66
2022/08/17 02:50:05;;;;;;;6.68;4.97;;;19.50;62.70;;;18.65;68.58;95419.16;5000164;28;20088;-66
2022/08/17 02:52:38;;;;;;;9.20;5.40;;;19.50;62.70;;;18.66;68.88;95427.94;4970683;28;20037;-69
2022/08/17 02:55:10;;;;;;;7.63;5.28;;;19.50;62.80;;;18.65;69.12;95418.34;4979726;28;20525;-67
2022/08/17 02:57:36;;;;;;;7.32;4.90;;;19.50;62.80;;;18.63;68.97;95417.81;4989254;28;20038;-67
2022/08/17 03:00:07;;;;;;;7.20;5.40;;;19.50;62.90;;;18.62;69.91;95418.81;5020893;28;20144;-66
2022/08/17 03:02:39;;;;;;;;;;;19.50;62.90;;;18.56;69.82;95419.84;5011608;28;20036;-65
2022/08/17 03:05:09;;;;;;;6.85;5.05;;;19.40;63.10;;;18.50;69.65;95419.00;5008433;28;19921;-65
2022/08/17 03:07:36;;;;;;;7.75;5.60;;;19.30;63.40;;;18.45;69.13;95413.63;4994323;28;20033;-65
2022/08/17 03:10:03;;;;;;;8.18;5.53;;;19.30;63.40;;;18.42;70.09;95413.34;5022202;28;20109;-65
2022/08/17 03:12:36;;;;;;;7.13;5.47;;;19.20;63.80;;;18.34;70.22;95410.09;5023946;28;20026;-65
2022/08/17 03:15:08;;;;;;;8.60;5.40;;;19.10;63.90;;;18.30;70.48;95410.84;5021532;28;20532;-65
2022/08/17 03:17:34;;;;;;;9.57;5.22;;;19.10;64.20;;;18.24;69.90;95407.34;5043264;28;20412;-65
2022/08/17 03:19:59;;;;;;;7.35;5.55;;;19.10;64.40;;;18.22;70.11;95404.13;5011175;28;20025;-66
2022/08/17 03:22:28;;;;;;;8.32;5.47;;;19.00;64.40;;;18.23;70.91;95411.06;5008419;28;20520;-65
2022/08/17 03:24:55;;;;;;;8.23;5.82;;;19.10;64.50;;;18.23;70.45;95396.94;5010830;28;20485;-65
2022/08/17 03:27:21;;;;;;;7.07;6.30;;;19.10;64.60;;;18.25;71.40;95408.94;5019345;28;20029;-65
2022/08/17 03:29:47;;;;;;;8.80;6.18;;;19.10;64.50;;;18.24;70.62;95406.53;4989039;28;20573;-65
2022/08/17 03:32:14;;;;;;;8.05;6.57;;;19.10;64.60;;;18.22;70.69;95414.78;5009890;28;20053;-66
2022/08/17 03:34:40;;;;;;;8.32;6.53;;;19.10;64.80;;;18.20;70.95;95426.75;5010763;28;20428;-65
2022/08/17 03:37:06;;;;;;;9.38;6.40;;;19.10;64.80;;;18.16;71.36;95423.78;5024844;28;20845;-65
2022/08/17 03:39:31;;;;;;;8.98;6.00;;;19.00;64.90;;;18.11;72.01;95423.75;5025490;28;20028;-66
2022/08/17 03:42:08;;;;;;;7.10;6.40;;;18.90;65.20;;;18.06;72.85;95426.34;5025755;28;20054;-65
2022/08/17 03:44:34;;;;;;;11.35;5.97;;;18.90;65.40;;;18.04;71.92;95436.44;4993892;28;20993;-65
2022/08/17 03:57:58;;;;;;;9.50;6.10;;;18.90;65.50;;;17.95;73.32;95440.63;4993406;28;20548;-69
2022/08/17 04:00:24;;;;;;;8.30;6.10;;;18.90;65.50;;;17.94;73.08;95439.81;4996299;28;20055;-70
2022/08/17 04:02:49;;;;;;;13.25;6.75;;;18.80;65.70;;;17.93;73.56;95443.53;5012619;28;20068;-69
2022/08/17 04:05:15;;;;;;;7.35;6.25;;;18.80;65.80;;;17.91;72.59;95442.97;5012321;28;20107;-70
2022/08/17 04:07:41;;;;;;;7.82;6.40;;;18.70;65.90;;;17.93;73.13;95442.72;5016649;28;20114;-69
2022/08/17 04:10:07;;;;;;;8.25;6.45;;;18.80;65.90;;;17.95;73.66;95445.94;5004893;28;20038;-69
2022/08/17 04:12:48;;;;;;;9.00;6.30;;;18.90;65.80;;;17.92;74.47;95449.09;5009244;28;20052;-70
2022/08/17 04:15:14;;;;;;;7.63;6.63;;;18.80;66.00;;;17.88;73.63;95455.97;4993113;28;20038;-69
2022/08/17 04:17:40;;;;;;;8.55;7.00;;;18.70;65.90;;;17.85;73.26;95457.25;5017635;28;20538;-69
2022/08/17 04:20:06;;;;;;;11.25;6.32;;;18.70;65.90;;;17.84;73.70;95460.16;5028230;28;20063;-70
2022/08/17 04:22:32;;;;;;;7.35;6.05;;;18.70;66.10;;;17.78;73.96;95454.00;5045413;28;20029;-69
2022/08/17 04:24:58;;;;;;;11.23;6.45;;;18.70;66.30;;;17.75;73.93;95457.97;5028747;28;20057;-69
2022/08/17 04:27:24;;;;;;;6.82;6.00;;;18.60;66.40;;;17.74;74.64;95444.91;5003170;28;20033;-69
2022/08/17 04:29:49;;;;;;;8.98;6.88;;;18.60;66.40;;;17.75;74.33;95447.31;5008141;28;20124;-67
2022/08/17 04:32:15;;;;;;;9.18;6.95;;;18.70;66.40;;;17.77;73.86;95440.94;5008989;28;20103;-69
2022/08/17 04:34:42;;;;;;;10.20;6.63;;;18.80;66.20;;;17.80;73.79;95443.91;5009117;28;20514;-69
2022/08/17 04:37:08;;;;;;;8.75;6.72;;;18.80;66.10;;;17.84;74.75;95449.53;5013190;28;20065;-70
2022/08/17 04:39:33;;;;;;;8.07;6.57;;;18.80;66.20;;;17.87;74.77;95449.03;5008481;28;20099;-70
2022/08/17 04:42:15;;;;;;;7.18;6.43;;;18.90;66.00;;;17.88;74.67;95448.81;4997827;28;20068;-69
2022/08/17 04:44:42;;;;;;;10.45;6.90;;;18.90;65.80;;;17.91;74.00;95435.00;5014539;28;20026;-69
2022/08/17 04:47:08;;;;;;;12.60;7.32;;;19.00;65.70;;;17.92;74.29;95435.81;5012345;28;20033;-70
2022/08/17 04:49:34;;;;;;;8.75;6.63;;;18.90;65.80;;;17.95;74.24;95437.97;5011712;28;20519;-70
2022/08/17 04:52:00;;;;;;;10.15;6.90;;;19.00;65.80;;;17.98;73.88;95434.78;5011536;28;20060;-69
2022/08/17 04:54:25;;;;;;;12.13;6.60;;;19.10;65.60;;;18.00;74.44;95432.69;5023509;28;20054;-69
2022/08/17 04:56:51;;;;;;;9.95;6.78;;;19.10;65.70;;;18.03;74.18;95427.66;5012447;28;20026;-69
2022/08/17 04:59:20;;;;;;;9.55;6.45;;;19.10;65.50;;;18.07;74.16;95438.59;5025689;28;20125;-70
2022/08/17 05:01:48;;;;;;;9.93;6.38;;;19.10;65.30;;;18.09;74.00;95431.16;5028428;28;20560;-69
2022/08/17 05:04:17;;;;;;;9.77;6.88;;;19.10;65.60;;;18.13;74.58;95434.13;5011431;28;20033;-70
2022/08/17 05:06:43;;;;;;;9.30;6.85;;;19.10;65.80;;;18.15;75.46;95429.38;5021666;28;20030;-69
2022/08/17 05:09:09;;;;;;;8.85;6.63;;;19.20;66.40;;;18.20;75.09;95432.06;5022887;28;20048;-68
2022/08/17 05:11:34;;;;;;;7.57;6.47;;;19.30;66.40;;;18.22;74.91;95437.94;5032373;28;20045;-69
2022/08/17 05:14:00;;;;;;;8.38;5.97;;;19.30;66.40;;;18.24;75.55;95435.81;5031695;28;20049;-68
2022/08/17 05:16:26;;;;;;;8.77;5.78;;;19.40;66.10;;;18.29;75.48;95442.00;5015106;28;20120;-68
2022/08/17 05:18:52;;;;;;;8.80;5.75;;;19.40;66.10;;;18.32;76.16;95430.84;5028572;28;20026;-68
2022/08/17 05:21:18;;;;;;;9.13;5.90;;;19.50;66.10;;;18.36;76.13;95437.28;4979855;28;20131;-68
2022/08/17 05:23:44;;;;;;;9.45;6.07;;;19.60;66.00;;;18.41;76.13;95443.69;4980103;28;20610;-68
2022/08/17 05:26:12;;;;;;;8.75;6.22;;;19.60;66.30;;;18.47;76.47;95442.69;4982199;28;20120;-69
2022/08/17 05:28:38;;;;;;;8.20;6.00;;;19.70;66.20;;;18.53;76.60;95449.63;4999056;28;20413;-69
2022/08/17 05:31:04;;;;;;;8.13;5.85;;;19.80;66.00;;;18.61;76.38;95459.84;5012086;28;20108;-69
2022/08/17 05:33:33;;;;;;;10.02;5.50;;;19.80;65.70;;;18.65;75.83;95466.28;5005023;28;20073;-68
2022/08/17 05:35:59;;;;;;;10.82;5.50;;;19.90;65.50;;;18.71;76.00;95473.25;5011449;28;20030;-68
2022/08/17 05:38:27;;;;;;;6.95;5.22;;;20.00;65.00;;;18.77;75.56;95472.22;5010930;28;20109;-68
2022/08/17 05:40:53;;;;;;;6.25;4.57;;;20.00;64.80;;;18.80;75.01;95468.28;5020435;28;20026;-69
2022/08/17 05:43:25;;;;;;;7.25;5.32;;;20.00;64.80;;;18.85;75.09;95466.44;5011800;28;20057;-69
2022/08/17 05:46:15;;;;;;;9.00;4.80;;;20.10;64.70;;;18.92;74.60;95467.03;5011447;28;20064;-67
2022/08/17 05:48:44;;;;;;;6.90;5.18;;;20.20;64.40;;;18.97;74.34;95468.91;5025290;28;20100;-68
2022/08/17 05:51:40;;;;;;;8.55;5.43;;;20.30;63.90;;;19.05;74.25;95465.78;5014008;28;20041;-68
2022/08/17 05:54:29;;;;;;;7.60;5.03;;;20.40;63.60;;;19.11;74.38;95469.28;5023977;28;20044;-68
2022/08/17 05:57:36;;;;;;;8.57;5.25;;;20.50;63.50;;;19.21;74.58;95474.66;5017144;28;20121;-68
2022/08/17 06:00:15;;;;;;;6.70;5.05;;;20.60;63.20;;;19.27;73.69;95479.78;5029907;28;20030;-68
2022/08/17 06:02:56;;;;;;;7.70;5.25;;;20.60;62.80;;;19.37;74.35;95475.53;5021236;28;20034;-69
2022/08/17 06:05:52;;;;;;;6.53;5.00;;;20.80;62.80;;;19.48;73.25;95485.22;5011550;28;20034;-69
2022/08/17 06:08:33;;;;;;;5.18;4.53;;;21.00;62.40;;;19.62;72.16;95483.69;5011188;28;20030;-70
2022/08/17 06:11:21;;;;;;;4.88;4.43;;;21.20;61.20;;;19.76;72.80;95487.50;5017046;28;20041;-69
2022/08/17 06:14:17;;;;;;;6.88;4.70;;;21.40;60.70;;;19.92;72.10;95490.22;4988699;28;20034;-69
2022/08/17 06:16:48;;;;;;;7.10;5.22;;;21.60;60.30;;;20.03;71.40;95481.97;4998689;28;20034;-68
2022/08/17 06:19:32;;;;;;;5.78;4.82;;;21.80;60.40;;;20.15;71.06;95495.91;4994076;28;20088;-69
2022/08/17 06:21:58;;;;;;;7.90;5.00;;;21.80;60.20;;;20.25;71.86;95499.63;5030251;28;20404;-68
2022/08/17 06:25:01;;;;;;;7.93;4.63;;;22.00;59.80;;;20.39;70.70;95500.75;5014740;28;20079;-69
2022/08/17 06:27:36;;;;;;;5.53;4.10;;;22.10;59.40;;;20.51;70.19;95498.63;5030638;28;20425;-69
2022/08/17 06:30:25;;;;;;;6.88;4.20;;;22.20;59.30;;;20.66;69.84;95492.50;5029679;28;20033;-69
2022/08/17 06:32:52;;;;;;;5.88;4.00;;;22.30;58.50;;;20.76;69.44;95490.63;5013583;28;20108;-69
2022/08/17 06:35:39;;;;;;;5.32;4.03;;;22.40;58.20;;;20.91;68.82;95492.50;5019002;28;20052;-69
2022/08/17 06:38:22;;;;;;;5.53;4.00;;;22.50;58.50;;;21.03;68.83;95489.53;4994856;28;20052;-70
2022/08/17 06:41:06;;;;;;;7.72;4.78;;;22.60;58.40;;;21.14;67.93;95496.50;5013221;28;20053;-69
2022/08/17 06:44:00;;;;;;;8.02;4.10;;;22.70;57.90;;;21.27;67.63;95495.94;5016623;28;20064;-70
2022/08/17 06:46:40;;;;;;;5.03;4.05;;;22.90;57.40;;;21.38;67.11;95494.84;5030632;28;20584;-69
2022/08/17 06:49:21;;;;;;;5.18;4.32;;;23.00;56.70;;;21.49;66.59;95492.94;5013986;28;20497;-69
2022/08/17 06:52:13;;;;;;;5.13;4.07;;;23.10;56.10;;;21.61;66.59;95500.69;5022269;28;20056;-70
2022/08/17 06:54:56;;;;;;;6.05;4.10;;;23.20;56.30;;;21.72;65.75;95491.53;4996706;28;20065;-69
2022/08/17 06:57:27;;;;;;;7.05;3.65;;;23.40;56.20;;;21.85;66.02;95493.63;5010735;28;20524;-69
2022/08/17 07:00:05;;;;;;;5.35;3.45;;;23.50;55.00;;;21.99;64.40;95502.69;5010996;28;20030;-69
2022/08/17 07:02:46;;;;;;;3.65;3.28;;;23.60;54.50;;;22.11;63.75;95490.84;5016457;28;20036;-69
2022/08/17 07:05:13;;;;;;;4.75;3.03;;;23.80;54.10;;;22.23;63.71;95492.13;5030336;28;20564;-69
2022/08/17 07:10:24;;;;;;;5.70;3.15;;;24.10;51.80;;;22.50;62.11;95510.44;5026389;28;20601;-70
2022/08/17 07:12:50;;;;;;;4.80;2.92;;;24.30;52.00;;;22.61;61.79;95511.97;5006947;28;20056;-69
2022/08/17 07:15:24;;;;;;;6.43;3.55;;;24.30;51.40;;;22.75;60.32;95505.97;5029936;28;20467;-70
2022/08/17 07:17:49;;;;;;;5.60;3.00;;;24.50;51.10;;;22.90;61.12;95511.25;5029923;28;20508;-70
2022/08/17 07:20:19;;;;;;;4.82;3.03;;;24.70;51.30;;;23.05;59.57;95513.00;5008133;28;21718;-70
2022/08/17 07:22:52;;;;;;;5.60;3.17;;;24.80;50.30;;;23.20;60.25;95510.19;4994559;28;20022;-70
2022/08/17 07:25:18;;;;;;;4.78;3.33;;;25.00;50.60;;;23.36;59.52;95510.84;5038791;28;20037;-69
2022/08/17 07:27:49;;;;;;;4.75;3.08;;;25.20;49.10;;;23.56;57.69;95513.34;5013007;28;20036;-70
2022/08/17 07:30:31;;;;;;;9.60;3.15;;;25.50;48.60;;;23.75;56.32;95511.50;5008841;28;20438;-70
2022/08/17 07:33:11;;;;;;;6.78;2.83;;;25.80;47.30;;;23.98;56.08;95519.81;5021335;28;20042;-69
2022/08/17 07:35:41;;;;;;;;;;;26.10;47.40;;;24.18;55.29;95518.78;5010933;28;20113;-70
2022/08/17 07:38:09;;;;;;;5.03;3.17;;;26.40;46.50;;;24.36;56.64;95521.50;5009184;28;19921;-71
2022/08/17 07:40:39;;;;;;;5.38;3.00;;;26.60;46.40;;;24.57;55.19;95518.53;5019499;28;20272;-69
2022/08/17 07:43:25;;;;;;;6.05;2.92;;;26.70;45.60;;;24.81;53.21;95530.00;5026174;28;20030;-69
2022/08/17 07:49:09;;;;;;;5.88;3.08;;;27.40;44.20;;;25.29;54.55;95535.16;5010143;28;20045;-70
2022/08/17 07:51:42;;;;;;;4.88;2.50;;;27.70;42.90;;;25.51;51.68;95521.84;5009628;28;20026;-70
2022/08/17 07:54:13;;;;;;;4.85;2.75;;;27.90;42.90;;;25.78;51.78;95534.56;5009121;28;20030;-70
2022/08/17 07:56:48;;;;;;;4.63;2.58;;;28.30;42.70;;;26.04;49.47;95534.88;5010921;28;20038;-69
2022/08/17 07:59:14;;;;;;;6.05;2.70;;;28.60;40.70;;;26.28;50.58;95529.25;5007968;28;20048;-70
2022/08/17 08:01:40;;;;;;;7.70;2.88;;;28.80;40.20;;;26.50;50.24;95528.56;5017662;28;20038;-69
2022/08/17 08:04:28;;;;;;;6.78;2.70;;;29.10;39.90;;;26.76;47.34;95537.66;5009179;28;20501;-70
2022/08/17 08:06:58;;;;;;;7.20;2.83;;;29.30;39.60;;;26.93;48.05;95531.56;5009398;28;20040;-70
2022/08/17 08:09:44;;;;;;;;;;;29.50;39.50;;;27.12;47.71;95534.91;5016870;28;20528;-70
2022/08/17 08:12:34;;;;;;;4.55;2.38;;;29.70;40.00;;;27.36;46.03;95534.59;5024648;28;19921;-70
2022/08/17 08:15:09;;;;;;;4.32;2.47;;;30.00;38.00;;;27.55;46.82;95528.19;5029035;28;20038;-69
2022/08/17 08:17:46;;;;;;;6.38;2.35;;;30.10;36.90;;;27.76;44.83;95521.94;5044915;28;20405;-70
2022/08/17 08:20:12;;;;;;;6.35;2.63;;;30.40;37.50;;;27.91;45.80;95520.75;5027001;28;20128;-70
2022/08/17 08:23:01;;;;;;;3.22;2.30;;;30.50;36.70;;;28.13;43.89;95524.47;5011786;28;20029;-70
2022/08/17 08:25:46;;;;;;;8.05;2.72;;;30.80;36.40;;;28.37;44.60;95516.75;5009265;28;20034;-70
2022/08/17 08:28:26;;;;;;;5.18;2.42;;;31.20;37.20;;;28.61;43.38;95524.41;5008401;28;20057;-70
2022/08/17 08:31:00;;;;;;;7.47;2.33;;;31.50;36.30;;;28.85;43.67;95513.09;5011151;28;20037;-69
2022/08/17 08:33:38;;;;;;;5.93;2.53;;;31.70;35.80;;;29.10;43.77;95519.63;4997758;28;20053;-70
2022/08/17 08:36:52;;;;;;;3.20;2.00;;;32.10;35.70;;;29.39;42.11;95516.22;4991753;28;20030;-70
2022/08/17 08:39:53;;;;;;;7.55;2.40;;;32.30;34.80;;;29.65;41.50;95519.72;5011121;28;20116;-70
2022/08/17 08:42:25;;;;;;;5.82;2.50;;;32.60;34.30;;;29.95;41.25;95514.31;5001397;28;20053;-70
2022/08/17 08:45:37;;;;;;;5.25;2.33;;;33.00;33.60;;;30.21;38.66;95503.34;5029937;28;20110;-70
2022/08/17 08:48:05;;;;;;;5.30;2.30;;;33.20;31.90;;;30.41;41.06;95492.53;5034357;28;20117;-70
2022/08/17 08:50:41;;;;;;;6.50;2.20;;;33.60;32.70;;;30.69;39.11;95500.16;5032617;28;20053;-70
2022/08/17 08:53:13;;;;;;;4.47;2.15;;;34.00;31.70;;;30.92;37.19;95517.69;5031819;28;20481;-69
2022/08/17 08:56:09;;;;;;;8.18;2.25;;;34.00;30.70;;;31.18;37.05;95508.53;5028570;28;20038;-70
2022/08/17 08:58:49;;;;;;;3.17;2.20;;;34.30;31.10;;;31.41;37.20;95503.50;4997699;28;20113;-69
2022/08/17 09:01:59;;;;;;;4.85;2.30;;;34.50;30.30;;;31.65;35.93;95498.91;5010884;28;20041;-70
2022/08/17 09:04:44;;;;;;;8.25;2.05;;;34.80;30.00;;;31.89;35.66;95483.75;5028032;28;20107;-70
2022/08/17 09:08:02;;;;;;;4.55;2.13;;;35.00;28.70;;;32.13;35.29;95481.03;5028287;28;20044;-70
2022/08/17 09:10:40;;;;;;;4.38;2.22;;;35.40;29.00;;;32.41;36.21;95477.63;5016732;28;20061;-70
2022/08/17 09:13:40;;;;;;;5.95;2.35;;;35.80;29.10;;;32.67;33.98;95478.00;5010211;28;20061;-70
2022/08/17 09:16:28;;;;;;;4.50;2.05;;;35.90;28.20;;;32.86;35.11;95475.47;5009888;28;20038;-70
2022/08/17 09:19:07;;;;;;;3.30;2.00;;;36.10;28.60;;;33.08;34.08;95484.25;5013168;28;20030;-70
2022/08/17 09:21:51;;;;;;;7.22;2.35;;;36.10;28.30;;;33.26;34.47;95495.59;5028314;28;20034;-69
2022/08/17 09:24:30;;;;;;;3.55;2.10;;;36.50;28.40;;;33.51;33.45;95490.88;5008264;28;20062;-70
2022/08/17 09:27:17;;;;;;;;;;;36.80;28.10;;;33.71;33.80;95492.50;5025541;28;20038;-69
2022/08/17 09:29:47;;;;;;;5.15;2.35;;;36.90;27.90;;;33.88;33.67;95500.38;5024577;28;19914;-70
2022/08/17 09:32:30;;;;;;;5.05;2.22;;;37.10;27.60;;;34.09;33.06;95479.06;4992051;28;20385;-68
2022/08/17 09:35:01;;;;;;;6.50;2.20;;;37.50;27.80;;;34.29;34.17;95492.75;4996518;28;20033;-68
2022/08/17 09:38:02;;;;;;;6.10;2.38;;;37.70;27.60;;;34.51;32.63;95494.06;5024594;28;20065;-70
2022/08/17 09:40:36;;;;;;;3.33;2.30;;;38.00;26.80;;;34.70;31.81;95500.34;4998087;28;20045;-68
2022/08/17 09:43:29;;;;;;;4.20;2.72;;;38.40;25.70;;;35.00;32.39;95499.78;5042874;28;20030;-69
2022/08/17 09:46:07;;;;;;;38.17;19.30;;;38.70;26.80;;;35.26;30.80;95502.63;4993105;28;20413;-68
2022/08/17 09:49:19;;;;;;;19.65;10.55;;;39.00;24.60;;;35.56;30.58;95491.91;4993749;28;20528;-69
2022/08/17 09:52:18;;;;;;;6.70;3.83;;;39.40;25.10;;;35.82;30.35;95468.47;5008002;28;20045;-68
2022/08/17 09:54:44;;;;;;;7.35;3.92;;;39.50;24.60;;;36.02;31.87;95470.00;4996555;28;20037;-68
2022/08/17 09:57:50;;;;;;;6.90;3.38;;;39.80;24.40;;;36.21;29.82;95471.84;5028026;28;20034;-69
2022/08/17 10:00:23;;;;;;;5.40;2.35;;;40.00;23.80;;;36.37;29.29;95477.97;5018499;28;20032;-69
2022/08/17 10:03:27;;;;;;;3.35;2.10;;;40.30;24.00;;;36.54;29.46;95475.84;5030552;28;20513;-68
2022/08/17 10:06:18;;;;;;;4.90;1.60;;;40.50;23.60;;;36.73;29.18;95478.47;5025088;28;20040;-68
2022/08/17 10:09:07;;;;;;;5.78;2.30;;;41.00;23.30;;;37.04;28.63;95467.09;5013634;28;20030;-69
2022/08/17 10:15:24;;;;;;;3.93;1.90;;;42.10;21.80;;;37.44;27.82;95478.53;4998580;28;20300;-68
2022/08/17 10:18:24;;;;;;;2.97;2.10;;;42.50;21.60;;;37.73;28.42;95479.59;4985716;28;20033;-68
2022/08/17 10:26:49;;;;;;;5.07;2.30;;;44.10;20.30;;;38.59;28.54;95476.31;5012650;28;20532;-69
2022/08/17 10:29:21;;;;;;;3.38;1.80;;;44.60;20.10;;;38.81;26.98;95475.25;4997635;28;20041;-69
2022/08/17 10:31:57;;;;;;;3.35;1.95;;;44.80;19.40;;;39.02;25.68;95466.31;5030968;28;20026;-69
2022/08/17 10:34:50;;;;;;;1.95;1.70;;;45.00;18.70;;;39.35;26.01;95451.47;5030514;28;20037;-69
2022/08/17 10:37:52;;;;;;;4.35;1.95;;;45.60;19.00;;;39.61;25.42;95453.13;5029912;28;20029;-69
2022/08/17 10:40:26;;;;;;;3.13;1.85;;;46.00;18.90;;;39.94;24.90;95465.72;5031769;28;20060;-69
2022/08/17 10:43:18;;;;;;;5.38;1.63;;;46.10;18.40;;;39.88;24.86;95461.78;5030553;28;20369;-68
2022/08/17 10:46:15;;;;;;;2.38;1.77;;;45.30;18.70;;;39.90;24.20;95459.44;4995921;28;20057;-68
2022/08/17 10:48:41;;;;;;;2.10;1.48;;;45.20;18.50;;;40.04;25.67;95453.13;5009907;28;20030;-69
2022/08/17 10:51:37;;;;;;;2.95;1.70;;;45.50;18.60;;;40.24;24.41;95456.25;5027109;28;20105;-69
2022/08/17 10:54:05;;;;;;;4.95;1.90;;;45.60;19.10;;;40.49;24.91;95459.78;4997597;28;20038;-68
2022/08/17 10:56:46;;;;;;;4.90;1.90;;;45.80;18.50;;;40.66;23.77;95472.72;4978193;28;20140;-69
2022/08/17 10:59:34;;;;;;;2.03;1.40;;;45.40;18.70;;;40.72;23.77;95481.38;4994990;28;20033;-69
2022/08/17 11:02:30;;;;;;;2.42;1.58;;;45.10;19.10;;;40.66;23.44;95472.72;5031223;28;20037;-69
2022/08/17 11:05:30;;;;;;;4.82;1.45;;;44.80;19.00;;;40.75;23.88;95466.81;5019848;28;20052;-69
2022/08/17 11:08:31;;;;;;;2.03;1.83;;;44.90;19.60;;;40.88;23.20;95462.44;5010181;28;20061;-69
2022/08/17 11:11:38;;;;;;;4.03;1.90;;;45.00;18.90;;;40.91;22.54;95464.38;5030233;28;20038;-69
2022/08/17 11:14:22;;;;;;;3.47;1.73;;;45.30;17.90;;;41.08;23.36;95465.50;5015119;28;20116;-69
2022/08/17 11:17:26;;;;;;;4.38;1.90;;;45.80;18.60;;;41.55;22.74;95471.56;5019762;28;20053;-68
2022/08/17 11:20:26;;;;;;;2.90;1.60;;;46.50;18.40;;;41.87;22.60;95472.16;4994832;28;20034;-69